Avno, Denmark

6:10 PM CEST on May 28, 2015 (GMT +0200)
Kostraede Banker | | Change Station
CLOSE
Current Station
Personal Weather Station
Location: Lundby,
Elevation: 39 ft
Nearby Weather Stations

Elev 39 ft 55.12 °N, 11.81 °E | Updated 8 seconds ago

Mostly Cloudy
Mostly Cloudy
57.9 °F
Feels Like 57.9 °F
N
9.0
Wind Variable Wind from West
Gusts 14.0 mph

Today
High -- | Low -- °F
--% Chance of Precip.
Yesterday
High -- | Low -- °F
Precip. -- in
4:45 AM 9:35 PM
Waxing Gibbous, 77% visible
Pressure 29.74 in
Visibility 6.2 miles
Clouds Few 3300 ft
Mostly Cloudy 15000 ft
Dew Point 47 °F
Humidity 68%
Rainfall 0.00 in
Snow Depth Not available.
UV 2 out of 12
Pollen Not available.
Air Quality Not available.
Flu Activity Not available.
METAR EKRK 281550Z AUTO 24012KT 9999NDV FEW033/// BKN150/// 14/07 Q1007

More Conditions Fewer Conditions

Pressure 29.74 in
Visibility 6.2 miles
Clouds Few 3300 ft
Mostly Cloudy 15000 ft
Dew Point 47 °F
Humidity 68%
Rainfall 0.00 in
Snow Depth Not available.
UV 2 out of 12
Pollen Not available.
Air Quality Not available.
Flu Activity Not available.
METAR EKRK 281550Z AUTO 24012KT 9999NDV FEW033/// BKN150/// 14/07 Q1007

More Conditions Fewer Conditions

10-Day Weather Forecast

Almanac

Astronomy

May. 28, 2015 Rise Set
Actual Time
Civil Twilight
Nautical Twilight
Astronomical Twilight
Moon
Length of Visible Light
Length of Day
Tomorrow will be .
, % of the Moon is Illuminated

Today's Extremes

Country Highs Country Lows

Community

WunderPhotos

Upload Photos

1,825,003 photos uploaded!

WunderBlogs® & News

Nearby

Air Quality

  Air Quality AQ Index Pollutant
Not available.

Snow Depth

Station Depth Elevation

Earthquake Activity

City Distance Mag. Time & Date
Minimum magnitude displayed is 2.5.

Coastal Water Temperatures

Place Temperature

Stations

Nearby Weather Stations

Station Location Temp. Windchill Dew Point Humidity Wind Precip. Elev Updated Type